sensor_id;sensor_type;location;lat;lon;timestamp;pressure;altitude;pressure_sealevel;temperature;humidity
82416;BME280;72058;47.782;10.618;2023-08-07T00:01:13;93317.94;;;21.80;45.39
82416;BME280;72058;47.782;10.618;2023-08-07T00:03:39;93316.34;;;21.79;45.48
82416;BME280;72058;47.782;10.618;2023-08-07T00:06:04;93312.78;;;21.79;45.52
82416;BME280;72058;47.782;10.618;2023-08-07T00:08:30;93303.28;;;21.80;45.34
82416;BME280;72058;47.782;10.618;2023-08-07T00:11:10;93305.66;;;21.81;45.66
82416;BME280;72058;47.782;10.618;2023-08-07T00:13:35;93304.09;;;21.80;45.59
82416;BME280;72058;47.782;10.618;2023-08-07T00:16:00;93300.50;;;21.80;45.57
82416;BME280;72058;47.782;10.618;2023-08-07T00:18:26;93293.00;;;21.80;45.38
82416;BME280;72058;47.782;10.618;2023-08-07T00:20:51;93294.19;;;21.83;45.30
82416;BME280;72058;47.782;10.618;2023-08-07T00:23:16;93299.34;;;21.81;45.54
82416;BME280;72058;47.782;10.618;2023-08-07T00:25:42;93293.00;;;21.80;45.65
82416;BME280;72058;47.782;10.618;2023-08-07T00:28:07;93295.78;;;21.80;45.58
82416;BME280;72058;47.782;10.618;2023-08-07T00:30:32;93298.94;;;21.82;45.55
82416;BME280;72058;47.782;10.618;2023-08-07T00:32:58;93293.78;;;21.81;45.64
82416;BME280;72058;47.782;10.618;2023-08-07T00:35:23;93299.34;;;21.81;46.03
82416;BME280;72058;47.782;10.618;2023-08-07T00:37:48;93298.94;;;21.79;45.67
82416;BME280;72058;47.782;10.618;2023-08-07T00:40:14;93298.53;;;21.80;45.51
82416;BME280;72058;47.782;10.618;2023-08-07T00:42:39;93302.91;;;21.81;45.50
82416;BME280;72058;47.782;10.618;2023-08-07T00:45:05;93306.06;;;21.80;45.60
82416;BME280;72058;47.782;10.618;2023-08-07T00:47:30;93311.59;;;21.80;45.40
82416;BME280;72058;47.782;10.618;2023-08-07T00:49:57;93311.59;;;21.80;45.46
82416;BME280;72058;47.782;10.618;2023-08-07T00:52:24;93317.94;;;21.80;45.30
82416;BME280;72058;47.782;10.618;2023-08-07T00:54:49;93315.53;;;21.79;45.38
82416;BME280;72058;47.782;10.618;2023-08-07T00:57:15;93315.53;;;21.79;45.30
82416;BME280;72058;47.782;10.618;2023-08-07T00:59:42;93308.03;;;21.79;46.71
82416;BME280;72058;47.782;10.618;2023-08-07T01:02:08;93318.72;;;21.81;45.67
82416;BME280;72058;47.782;10.618;2023-08-07T01:04:34;93314.75;;;21.78;45.46
82416;BME280;72058;47.782;10.618;2023-08-07T01:06:59;93313.97;;;21.78;45.43
82416;BME280;72058;47.782;10.618;2023-08-07T01:09:25;93318.69;;;21.77;45.55
82416;BME280;72058;47.782;10.618;2023-08-07T01:12:02;93310.00;;;21.79;45.83
82416;BME280;72058;47.782;10.618;2023-08-07T01:17:00;93318.31;;;21.79;45.38
82416;BME280;72058;47.782;10.618;2023-08-07T01:19:28;93317.13;;;21.80;45.33
82416;BME280;72058;47.782;10.618;2023-08-07T01:22:10;93329.78;;;21.77;45.13
82416;BME280;72058;47.782;10.618;2023-08-07T01:24:36;93326.22;;;21.77;45.25
82416;BME280;72058;47.782;10.618;2023-08-07T01:29:43;93319.91;;;21.73;45.61
82416;BME280;72058;47.782;10.618;2023-08-07T01:32:11;93319.50;;;21.71;45.32
82416;BME280;72058;47.782;10.618;2023-08-07T01:34:40;93326.22;;;21.66;45.64
82416;BME280;72058;47.782;10.618;2023-08-07T01:37:07;93319.50;;;21.64;45.48
82416;BME280;72058;47.782;10.618;2023-08-07T01:39:36;93338.06;;;21.63;45.80
82416;BME280;72058;47.782;10.618;2023-08-07T01:42:02;93332.53;;;21.59;45.76
82416;BME280;72058;47.782;10.618;2023-08-07T12:03:42;93592.06;;;19.44;47.36
82416;BME280;72058;47.782;10.618;2023-08-07T12:06:08;93597.53;;;18.88;49.23
82416;BME280;72058;47.782;10.618;2023-08-07T12:08:39;93611.06;;;18.74;49.78
82416;BME280;72058;47.782;10.618;2023-08-07T12:11:08;93632.38;;;18.77;50.38
82416;BME280;72058;47.782;10.618;2023-08-07T12:13:37;93638.00;;;18.84;50.77
82416;BME280;72058;47.782;10.618;2023-08-07T12:16:02;93646.03;;;18.92;51.50
82416;BME280;72058;47.782;10.618;2023-08-07T12:18:31;93632.66;;;19.17;50.12
82416;BME280;72058;47.782;10.618;2023-08-07T12:20:58;93630.28;;;19.42;49.43
82416;BME280;72058;47.782;10.618;2023-08-07T12:23:24;93626.38;;;19.69;48.85
82416;BME280;72058;47.782;10.618;2023-08-07T12:25:50;93629.44;;;19.91;48.52
82416;BME280;72058;47.782;10.618;2023-08-07T12:28:17;93626.13;;;20.12;48.08
82416;BME280;72058;47.782;10.618;2023-08-07T12:30:45;93630.28;;;20.28;47.66
82416;BME280;72058;47.782;10.618;2023-08-07T12:33:11;93626.53;;;20.43;47.39
82416;BME280;72058;47.782;10.618;2023-08-07T12:35:37;93632.63;;;20.56;46.96
82416;BME280;72058;47.782;10.618;2023-08-07T12:38:02;93626.41;;;20.66;46.89
82416;BME280;72058;47.782;10.618;2023-08-07T12:40:29;93626.09;;;20.75;46.77
82416;BME280;72058;47.782;10.618;2023-08-07T12:42:55;93614.72;;;20.83;46.38
82416;BME280;72058;47.782;10.618;2023-08-07T12:45:20;93611.22;;;20.90;46.45
82416;BME280;72058;47.782;10.618;2023-08-07T12:47:46;93613.25;;;20.97;46.39
82416;BME280;72058;47.782;10.618;2023-08-07T12:50:11;93606.56;;;21.01;46.43
82416;BME280;72058;47.782;10.618;2023-08-07T12:52:37;93599.91;;;21.06;46.21
82416;BME280;72058;47.782;10.618;2023-08-07T12:55:02;93604.69;;;21.09;46.16
82416;BME280;72058;47.782;10.618;2023-08-07T12:57:28;93599.16;;;21.12;46.05
82416;BME280;72058;47.782;10.618;2023-08-07T12:59:54;93601.16;;;21.15;46.09
82416;BME280;72058;47.782;10.618;2023-08-07T13:02:19;93607.16;;;21.21;46.03
82416;BME280;72058;47.782;10.618;2023-08-07T13:04:44;93608.38;;;21.24;46.07
82416;BME280;72058;47.782;10.618;2023-08-07T13:07:11;93608.78;;;21.26;45.91
82416;BME280;72058;47.782;10.618;2023-08-07T13:09:37;93603.28;;;21.29;45.74
82416;BME280;72058;47.782;10.618;2023-08-07T13:12:02;93615.91;;;21.27;46.08
82416;BME280;72058;47.782;10.618;2023-08-07T13:14:28;93621.75;;;21.18;46.33
82416;BME280;72058;47.782;10.618;2023-08-07T13:16:53;93628.91;;;21.23;46.36
82416;BME280;72058;47.782;10.618;2023-08-07T13:19:18;93628.59;;;21.35;45.61
82416;BME280;72058;47.782;10.618;2023-08-07T13:21:44;93631.88;;;21.47;51.12
82416;BME280;72058;47.782;10.618;2023-08-07T13:24:09;93633.94;;;21.57;45.99
82416;BME280;72058;47.782;10.618;2023-08-07T13:26:34;93648.63;;;21.65;45.66
